Kachidoki Maru — JD2272 — position and weather

sailwx.info

Track history (hours):
 
Tides and Currents Weather Stations Pressure Air Temp Water Temp Dewpoint Dewpoint Depression Visibility Wind Speed Wind Dir Waves Ship Positions

Kachidoki Maru

Last reported at 2017-Oct-22 22:52 UTC. Time now 2017-Oct-23 06:14 UTC.
Position N 35°38' E 139°46'.

Length 38 m.

Type: Pilot. MMSI: 431101146.

Date/timePositionNaut miles runAvg speedWind from/ knotsBaromVisibWave heightAir tempDewpointWater temp
2017-Oct-22 22:52N 35°38' E 139°46'0 0.3
2017-Oct-22 22:30N 35°38' E 139°46'0 0.3
2017-Oct-22 21:58N 35°39' E 139°46'0 0.2
2017-Oct-22 21:29N 35°38' E 139°46'1 0.0
2017-Oct-21 19:50N 35°38' E 139°46'1 3.3
2017-Oct-21 19:25N 35°37' E 139°46'1 0.4
2017-Oct-21 16:09N 35°36' E 139°47'0 0.3
2017-Oct-21 15:50N 35°36' E 139°48'1 1.8
2017-Oct-21 15:10N 35°36' E 139°46'0 0.1
2017-Oct-21 14:41N 35°36' E 139°46'1 3.6
2017-Oct-21 14:30N 35°37' E 139°46'1 0.3
2017-Oct-21 12:23N 35°37' E 139°47'1 0.6
2017-Oct-21 10:13N 35°38' E 139°46'2 2.9
2017-Oct-21 09:23N 35°35' E 139°47'2 5.8
2017-Oct-21 08:58N 35°34' E 139°49'4 6.7
2017-Oct-21 08:25N 35°37' E 139°46'1 0.2
2017-Oct-21 04:25N 35°37' E 139°46'0 0.1
2017-Oct-21 02:28N 35°37' E 139°46'1 1.7
2017-Oct-21 01:56N 35°37' E 139°47'1 0.0
2017-Oct-20 04:59N 35°36' E 139°47'2 2.6
2017-Oct-20 04:21N 35°34' E 139°48'3 0.2
2017-Oct-19 12:52N 35°37' E 139°46'1 2.5
2017-Oct-19 12:29N 35°37' E 139°47'1 3.0
2017-Oct-19 11:59N 35°35' E 139°47'1 0.7
2017-Oct-19 10:08N 35°36' E 139°47'0 1.2
2017-Oct-19 09:49N 35°36' E 139°47'1 4.5
2017-Oct-19 09:29N 35°35' E 139°48'4 1.4
2017-Oct-19 06:47N 35°38' E 139°46'310.4
2017-Oct-19 06:28N 35°35' E 139°47'2 2.4
2017-Oct-19 05:43N 35°37' E 139°46'  
2017-Oct-16 15:37N 35°38' E 139°45'110.0
2017-Oct-16 15:30N 35°37' E 139°46'1 2.0
2017-Oct-16 14:54N 35°36' E 139°47'2 1.2
2017-Oct-16 12:58N 35°38' E 139°46'2 3.0
2017-Oct-16 12:10N 35°36' E 139°47'0 0.2
2017-Oct-16 11:58N 35°36' E 139°47'1 0.4
2017-Oct-16 09:33N 35°35' E 139°47'1 3.7
2017-Oct-16 09:15N 35°36' E 139°46'0 0.0
2017-Oct-15 22:24N 35°37' E 139°46'3 4.9
2017-Oct-15 21:50N 35°35' E 139°48'2 1.6
2017-Oct-15 20:52N 35°35' E 139°47'1 2.1
2017-Oct-15 20:22N 35°36' E 139°47'2 3.2
2017-Oct-15 19:45N 35°38' E 139°46'310.6
2017-Oct-15 19:30N 35°36' E 139°47'3 0.1
2017-Oct-14 09:29N 35°38' E 139°46'4 3.8
2017-Oct-14 08:31N 35°35' E 139°48'0 9.6
2017-Oct-14 08:30N 35°35' E 139°48'1 2.5
2017-Oct-14 08:00N 35°34' E 139°49'3 5.8
2017-Oct-14 07:28N 35°37' E 139°47'1 0.1
2017-Oct-13 22:32N 35°37' E 139°46'3 3.1
2017-Oct-13 21:28N 35°34' E 139°48'1 1.1
2017-Oct-13 20:58N 35°35' E 139°48'2 2.5
2017-Oct-13 20:19N 35°36' E 139°47'  
Track history (hours):
 
Tides and Currents Weather Stations Pressure Air Temp Water Temp Dewpoint Dewpoint Depression Visibility Wind Speed Wind Dir Waves Ship Positions

Kachidoki Maru

Last reported at 2017-Oct-22 22:52 UTC. Time now 2017-Oct-23 06:14 UTC.
Position N 35°38' E 139°46'.

Length 38 m.

Type: Pilot. MMSI: 431101146.

Date/timePositionNaut miles runAvg speedWind from/ knotsBaromVisibWave heightAir tempDewpointWater temp
2017-Oct-22 22:52N 35°38' E 139°46'0 0.3
2017-Oct-22 22:30N 35°38' E 139°46'0 0.3
2017-Oct-22 21:58N 35°39' E 139°46'0 0.2
2017-Oct-22 21:29N 35°38' E 139°46'1 0.0
2017-Oct-21 19:50N 35°38' E 139°46'1 3.3
2017-Oct-21 19:25N 35°37' E 139°46'1 0.4
2017-Oct-21 16:09N 35°36' E 139°47'0 0.3
2017-Oct-21 15:50N 35°36' E 139°48'1 1.8
2017-Oct-21 15:10N 35°36' E 139°46'0 0.1
2017-Oct-21 14:41N 35°36' E 139°46'1 3.6
2017-Oct-21 14:30N 35°37' E 139°46'1 0.3
2017-Oct-21 12:23N 35°37' E 139°47'1 0.6
2017-Oct-21 10:13N 35°38' E 139°46'2 2.9
2017-Oct-21 09:23N 35°35' E 139°47'2 5.8
2017-Oct-21 08:58N 35°34' E 139°49'4 6.7
2017-Oct-21 08:25N 35°37' E 139°46'1 0.2
2017-Oct-21 04:25N 35°37' E 139°46'0 0.1
2017-Oct-21 02:28N 35°37' E 139°46'1 1.7
2017-Oct-21 01:56N 35°37' E 139°47'1 0.0
2017-Oct-20 04:59N 35°36' E 139°47'2 2.6
2017-Oct-20 04:21N 35°34' E 139°48'3 0.2
2017-Oct-19 12:52N 35°37' E 139°46'1 2.5
2017-Oct-19 12:29N 35°37' E 139°47'1 3.0
2017-Oct-19 11:59N 35°35' E 139°47'1 0.7
2017-Oct-19 10:08N 35°36' E 139°47'0 1.2
2017-Oct-19 09:49N 35°36' E 139°47'1 4.5
2017-Oct-19 09:29N 35°35' E 139°48'4 1.4
2017-Oct-19 06:47N 35°38' E 139°46'310.4
2017-Oct-19 06:28N 35°35' E 139°47'2 2.4
2017-Oct-19 05:43N 35°37' E 139°46'  
2017-Oct-16 15:37N 35°38' E 139°45'110.0
2017-Oct-16 15:30N 35°37' E 139°46'1 2.0
2017-Oct-16 14:54N 35°36' E 139°47'2 1.2
2017-Oct-16 12:58N 35°38' E 139°46'2 3.0
2017-Oct-16 12:10N 35°36' E 139°47'0 0.2
2017-Oct-16 11:58N 35°36' E 139°47'1 0.4
2017-Oct-16 09:33N 35°35' E 139°47'1 3.7
2017-Oct-16 09:15N 35°36' E 139°46'0 0.0
2017-Oct-15 22:24N 35°37' E 139°46'3 4.9
2017-Oct-15 21:50N 35°35' E 139°48'2 1.6
2017-Oct-15 20:52N 35°35' E 139°47'1 2.1
2017-Oct-15 20:22N 35°36' E 139°47'2 3.2
2017-Oct-15 19:45N 35°38' E 139°46'310.6
2017-Oct-15 19:30N 35°36' E 139°47'3 0.1
2017-Oct-14 09:29N 35°38' E 139°46'4 3.8
2017-Oct-14 08:31N 35°35' E 139°48'0 9.6
2017-Oct-14 08:30N 35°35' E 139°48'1 2.5
2017-Oct-14 08:00N 35°34' E 139°49'3 5.8
2017-Oct-14 07:28N 35°37' E 139°47'1 0.1
2017-Oct-13 22:32N 35°37' E 139°46'3 3.1
2017-Oct-13 21:28N 35°34' E 139°48'1 1.1
2017-Oct-13 20:58N 35°35' E 139°48'2 2.5
2017-Oct-13 20:19N 35°36' E 139°47'  

Dump ship's entire track history